Terminal Aerodrome Forecast
Issued by NWS North Platte, NE

Home | Current Version | Previous Version | Graphics & Text | Print | Product List | Glossary On
Versions: 1 2 3 4 5 6 7 8 9 10 11 12 13 14 15 16 17 18 19
000
FTUS43 KLBF 250520
TAFVTN
TAF
KVTN 250520Z 2506/2606 14007KT P6SM BKN150
     FM250700 14009KT P6SM VCTS BKN100CB
     FM250900 17011KT P6SM BKN150
     FM251700 17012G20KT P6SM SCT200
     FM260100 17011KT P6SM SCT150=

USA.gov is the U.S. government's official web portal to all federal, state and local government web resources and services.